createdAt,value
2022-11-23T00:01:27.869Z,94361.31
2022-11-23T00:03:57.528Z,94365.97
2022-11-23T00:06:25.749Z,94364.56
2022-11-23T00:08:54.309Z,94366.84
2022-11-23T00:11:24.600Z,94368.53
2022-11-23T00:13:53.257Z,94356.59
2022-11-23T00:16:23.175Z,94357.81
2022-11-23T00:18:52.926Z,94359.72
2022-11-23T00:21:21.786Z,94362.44
2022-11-23T00:23:49.827Z,94354.81
2022-11-23T00:26:18.728Z,94356.63
2022-11-23T00:28:47.486Z,94356.28
2022-11-23T00:31:19.186Z,94364.53
2022-11-23T00:33:49.907Z,94357.94
2022-11-23T00:36:17.508Z,94356.00
2022-11-23T00:38:45.338Z,94359.03
2022-11-23T00:41:15.147Z,94356.88
2022-11-23T00:43:43.486Z,94355.13
2022-11-23T00:46:15.164Z,94354.09
2022-11-23T00:48:44.308Z,94354.09
2022-11-23T00:51:14.221Z,94357.53
2022-11-23T00:53:41.844Z,94364.13
2022-11-23T00:56:09.022Z,94359.47
2022-11-23T00:58:36.702Z,94359.59
2022-11-23T01:01:07.080Z,94347.13
2022-11-23T01:03:34.863Z,94354.72
2022-11-23T01:06:09.581Z,94346.59
2022-11-23T01:08:37.703Z,94350.25
2022-11-23T01:11:07.859Z,94341.81
2022-11-23T01:13:35.488Z,94338.97
2022-11-23T01:16:02.681Z,94338.19
2022-11-23T01:18:29.720Z,94333.34
2022-11-23T01:20:57.240Z,94334.91
2022-11-23T01:23:25.821Z,94336.72
2022-11-23T01:25:56.796Z,94338.09
2022-11-23T01:28:24.860Z,94334.03
2022-11-23T01:30:52.002Z,94337.66
2022-11-23T01:33:19.100Z,94330.41
2022-11-23T01:35:46.220Z,94338.13
2022-11-23T01:38:18.059Z,94339.25
2022-11-23T01:40:47.186Z,94328.91
2022-11-23T01:43:17.586Z,94320.06
2022-11-23T01:45:56.542Z,94316.13
2022-11-23T01:48:28.722Z,94325.00
2022-11-23T01:50:59.422Z,94322.84
2022-11-23T01:53:28.663Z,94328.13
2022-11-23T01:56:02.368Z,94322.88
2022-11-23T01:58:35.284Z,94325.38
2022-11-23T02:01:03.047Z,94319.66
2022-11-23T02:03:34.782Z,94321.31
2022-11-23T02:06:05.003Z,94335.28
2022-11-23T02:08:32.064Z,94330.00
2022-11-23T02:11:00.799Z,94323.75
2022-11-23T02:13:29.740Z,94330.72
2022-11-23T02:15:59.183Z,94326.22
2022-11-23T02:18:31.381Z,94327.16
2022-11-23T02:21:01.886Z,94317.41
2022-11-23T02:23:41.022Z,94316.03
2022-11-23T02:26:14.890Z,94315.59
2022-11-23T02:28:47.188Z,94320.38
2022-11-23T02:31:14.268Z,94312.78
2022-11-23T02:33:41.434Z,94318.84
2022-11-23T02:36:36.228Z,94314.31
2022-11-23T02:39:08.907Z,94315.69
2022-11-23T02:41:40.668Z,94312.41
2022-11-23T02:47:04.271Z,94298.00
2022-11-23T02:49:31.819Z,94287.91
2022-11-23T02:52:19.328Z,94280.19
2022-11-23T02:54:46.507Z,94273.38
2022-11-23T02:57:15.332Z,94285.50
2022-11-23T02:59:42.548Z,94272.28
2022-11-23T03:02:09.675Z,94272.28
2022-11-23T03:04:36.795Z,94271.28
2022-11-23T03:07:03.956Z,94264.00
2022-11-23T03:09:31.385Z,94257.66
2022-11-23T03:11:58.656Z,94264.66
2022-11-23T03:14:27.240Z,94260.81
2022-11-23T03:16:54.280Z,94262.59
2022-11-23T03:19:21.307Z,94254.56
2022-11-23T03:21:48.407Z,94257.00
2022-11-23T03:24:15.547Z,94255.41
2022-11-23T03:26:42.650Z,94256.22
2022-11-23T03:29:09.870Z,94254.06
2022-11-23T03:31:38.406Z,94250.16
2022-11-23T03:34:05.491Z,94248.69
2022-11-23T03:36:32.647Z,94256.44
2022-11-23T03:38:59.728Z,94256.75
2022-11-23T03:41:26.770Z,94239.44
2022-11-23T03:43:54.209Z,94240.78
2022-11-23T03:46:21.367Z,94247.03
2022-11-23T03:48:49.888Z,94243.72
2022-11-23T03:51:16.989Z,94238.97
2022-11-23T03:53:44.169Z,94232.56
2022-11-23T03:56:11.447Z,94231.06
2022-11-23T03:58:38.595Z,94218.72
2022-11-23T04:01:05.716Z,94218.56
2022-11-23T04:03:32.849Z,94212.28
2022-11-23T04:06:01.508Z,94216.63
2022-11-23T04:08:28.670Z,94213.53
2022-11-23T04:10:56.925Z,94207.81
2022-11-23T04:13:24.468Z,94203.34
2022-11-23T04:15:51.607Z,94207.81
2022-11-23T04:18:18.690Z,94213.09
2022-11-23T04:20:45.928Z,94207.88
2022-11-23T04:23:14.551Z,94205.28
2022-11-23T04:25:41.628Z,94210.53
2022-11-23T04:28:09.127Z,94205.25
2022-11-23T04:30:36.171Z,94209.72
2022-11-23T04:33:03.248Z,94213.72
2022-11-23T04:35:30.309Z,94211.88
2022-11-23T04:37:57.450Z,94215.09
2022-11-23T04:40:26.078Z,94218.00
2022-11-23T04:42:56.417Z,94221.63
2022-11-23T04:45:27.427Z,94215.09
2022-11-23T04:47:54.487Z,94207.59
2022-11-23T04:50:21.608Z,94202.97
2022-11-23T04:52:48.630Z,94197.59
2022-11-23T04:55:15.769Z,94188.03
2022-11-23T04:57:44.308Z,94179.59
2022-11-23T05:00:13.268Z,94190.66
2022-11-23T05:02:40.391Z,94203.38
2022-11-23T05:05:08.707Z,94203.66
2022-11-23T05:07:35.827Z,94204.41
2022-11-23T05:10:03.727Z,94204.34
2022-11-23T05:12:30.766Z,94206.06
2022-11-23T05:14:59.367Z,94218.28
2022-11-23T05:17:26.626Z,94213.38
2022-11-23T05:19:53.673Z,94216.56
2022-11-23T05:22:20.806Z,94218.69
2022-11-23T05:24:47.867Z,94222.91
2022-11-23T05:27:14.963Z,94218.94
2022-11-23T05:29:42.059Z,94236.91
2022-11-23T05:32:10.639Z,94238.59
2022-11-23T05:34:37.779Z,94249.13
2022-11-23T05:37:04.859Z,94248.47
2022-11-23T05:39:32.343Z,94248.41
2022-11-23T05:41:59.939Z,94254.84
2022-11-23T05:44:27.036Z,94252.06
2022-11-23T05:46:54.078Z,94244.97
2022-11-23T05:49:22.597Z,94249.53
2022-11-23T05:51:49.978Z,94251.41
2022-11-23T05:54:17.037Z,94248.56
2022-11-23T05:56:44.093Z,94245.84
2022-11-23T05:59:11.745Z,94247.75
2022-11-23T06:01:38.746Z,94242.66
2022-11-23T06:04:05.866Z,94241.50
2022-11-23T06:06:34.367Z,94233.78
2022-11-23T06:09:01.767Z,94235.19
2022-11-23T06:11:28.921Z,94232.97
2022-11-23T06:13:55.960Z,94238.63
2022-11-23T06:16:23.061Z,94239.88
2022-11-23T06:18:50.185Z,94241.72
2022-11-23T06:21:17.259Z,94238.38
2022-11-23T06:23:47.301Z,94238.94
2022-11-23T06:26:14.420Z,94248.41
2022-11-23T06:28:41.939Z,94247.28
2022-11-23T06:31:10.701Z,94243.16
2022-11-23T06:33:38.779Z,94249.69
2022-11-23T06:36:06.681Z,94257.63
2022-11-23T06:38:33.742Z,94256.69
2022-11-23T06:41:03.644Z,94255.06
2022-11-23T06:43:31.304Z,94266.19
2022-11-23T06:45:58.980Z,94270.38
2022-11-23T06:48:26.050Z,94269.41
2022-11-23T06:50:53.062Z,94273.72
2022-11-23T06:53:20.132Z,94275.44
2022-11-23T06:55:47.247Z,94273.03
2022-11-23T06:58:15.841Z,94280.16
2022-11-23T07:00:43.041Z,94282.28
2022-11-23T07:03:19.642Z,94291.28
2022-11-23T07:05:46.948Z,94289.44
2022-11-23T07:08:14.347Z,94292.53
2022-11-23T07:10:41.507Z,94301.84
2022-11-23T07:13:10.606Z,94298.72
2022-11-23T07:15:39.752Z,94294.59
2022-11-23T07:18:08.404Z,94301.25
2022-11-23T07:20:35.849Z,94291.19
2022-11-23T07:23:06.147Z,94297.13
2022-11-23T07:25:35.566Z,94290.28
2022-11-23T07:28:04.464Z,94296.72
2022-11-23T07:30:33.485Z,94289.72
2022-11-23T07:33:03.671Z,94288.72
2022-11-23T07:35:31.830Z,94293.75
2022-11-23T07:37:59.445Z,94290.63
2022-11-23T07:40:26.985Z,94299.69
2022-11-23T07:42:59.694Z,94299.22
2022-11-23T07:45:26.791Z,94301.72
2022-11-23T07:47:59.892Z,94299.44
2022-11-23T07:50:29.370Z,94299.44
2022-11-23T07:52:56.911Z,94298.41
2022-11-23T07:55:24.403Z,94301.03
2022-11-23T07:57:55.131Z,94299.72
2022-11-23T08:00:24.034Z,94291.81
2022-11-23T08:03:25.678Z,94302.38
2022-11-23T08:05:40.946Z,94302.63
2022-11-23T08:08:08.092Z,94298.41
2022-11-23T08:10:40.198Z,94311.09
2022-11-23T08:13:10.879Z,94314.78
2022-11-23T08:15:37.998Z,94311.13
2022-11-23T08:18:05.081Z,94314.88
2022-11-23T08:20:32.903Z,94314.63
2022-11-23T08:23:01.435Z,94320.91
2022-11-23T08:25:29.442Z,94314.59
2022-11-23T08:27:57.280Z,94327.03
2022-11-23T08:30:27.422Z,94324.94
2022-11-23T08:32:54.579Z,94331.56
2022-11-23T08:35:21.677Z,94337.34
2022-11-23T08:37:49.214Z,94333.41
2022-11-23T08:40:24.818Z,94332.34
2022-11-23T08:42:52.721Z,94343.16
2022-11-23T08:45:19.955Z,94340.00
2022-11-23T08:47:47.200Z,94349.28
2022-11-23T08:50:14.720Z,94348.91
2022-11-23T08:52:41.717Z,94345.38
2022-11-23T08:55:09.457Z,94350.56
2022-11-23T08:57:38.060Z,94350.63
2022-11-23T09:00:07.380Z,94349.44
2022-11-23T09:02:34.458Z,94357.75
2022-11-23T09:05:01.616Z,94354.47
2022-11-23T09:07:28.766Z,94351.00
2022-11-23T09:09:55.862Z,94348.38
2022-11-23T09:12:23.061Z,94349.94
2022-11-23T09:14:53.418Z,94352.38
2022-11-23T09:17:20.500Z,94345.34
2022-11-23T09:19:49.759Z,94357.78
2022-11-23T09:22:25.505Z,94352.97
2022-11-23T09:24:52.898Z,94356.84
2022-11-23T09:27:20.033Z,94358.94
2022-11-23T09:29:47.135Z,94359.13
2022-11-23T09:32:14.294Z,94358.38
2022-11-23T09:34:41.533Z,94365.13
2022-11-23T09:37:08.618Z,94367.25
2022-11-23T09:39:37.173Z,94364.63
2022-11-23T09:42:29.935Z,94362.25
2022-11-23T09:45:39.510Z,94357.75
2022-11-23T09:48:35.372Z,94355.84
2022-11-23T09:51:11.881Z,94352.66
2022-11-23T09:53:46.969Z,94349.78
2022-11-23T09:56:20.365Z,94347.94
2022-11-23T09:58:53.767Z,94353.97
2022-11-23T10:01:21.456Z,94345.84
2022-11-23T10:03:49.867Z,94356.94
2022-11-23T10:06:22.927Z,94346.88
2022-11-23T10:09:06.953Z,94339.22
2022-11-23T10:11:51.166Z,94346.06
2022-11-23T10:14:37.046Z,94345.25
2022-11-23T10:17:17.506Z,94339.31
2022-11-23T10:20:08.086Z,94335.09
2022-11-23T10:22:48.226Z,94337.41
2022-11-23T10:25:18.766Z,94330.59
2022-11-23T10:27:50.014Z,94326.38
2022-11-23T10:30:19.630Z,94325.28
2022-11-23T10:32:55.889Z,94320.41
2022-11-23T10:35:29.350Z,94321.03
2022-11-23T10:38:15.206Z,94319.81
2022-11-23T10:40:59.670Z,94332.25
2022-11-23T10:43:35.265Z,94323.56
2022-11-23T10:46:31.606Z,94324.09
2022-11-23T10:49:17.416Z,94311.69
2022-11-23T10:51:53.420Z,94325.41
2022-11-23T10:54:26.225Z,94315.09
2022-11-23T10:56:55.201Z,94320.63
2022-11-23T10:59:36.741Z,94319.56
2022-11-23T11:02:24.762Z,94320.94
2022-11-23T11:05:14.162Z,94323.53
2022-11-23T11:07:41.690Z,94318.53
2022-11-23T11:10:38.009Z,94313.22
2022-11-23T11:13:23.277Z,94309.50
2022-11-23T11:15:58.241Z,94310.03
2022-11-23T11:18:31.297Z,94307.38
2022-11-23T11:21:08.197Z,94302.34
2022-11-23T11:23:41.785Z,94298.63
2022-11-23T11:26:21.482Z,94292.53
2022-11-23T11:28:52.580Z,94302.78
2022-11-23T11:31:53.516Z,94305.06
2022-11-23T11:34:28.295Z,94303.66
2022-11-23T11:37:04.693Z,94309.09
2022-11-23T11:39:40.080Z,94301.59
2022-11-23T11:42:18.299Z,94302.28
2022-11-23T11:44:48.245Z,94309.97
2022-11-23T11:47:31.539Z,94312.72
2022-11-23T11:50:08.421Z,94306.06
2022-11-23T11:52:40.870Z,94307.88
2022-11-23T11:55:16.876Z,94311.19
2022-11-23T11:57:50.204Z,94304.56
2022-11-23T12:00:20.392Z,94304.56
2022-11-23T12:03:01.334Z,94305.47
2022-11-23T12:05:38.276Z,94301.47
2022-11-23T12:08:14.442Z,94304.59
2022-11-23T12:10:49.293Z,94302.31
2022-11-23T12:13:20.121Z,94298.97
2022-11-23T12:15:54.160Z,94294.47
2022-11-23T12:18:46.822Z,94302.69
2022-11-23T12:21:32.087Z,94299.78
2022-11-23T12:24:10.800Z,94299.75
2022-11-23T12:26:51.724Z,94294.56
2022-11-23T12:29:39.049Z,94285.63
2022-11-23T12:32:20.100Z,94287.22
2022-11-23T12:35:12.902Z,94281.81
2022-11-23T12:37:56.709Z,94284.19
2022-11-23T12:40:45.401Z,94280.47
2022-11-23T12:43:19.948Z,94287.41
2022-11-23T12:46:04.740Z,94281.28
2022-11-23T12:48:50.265Z,94281.75
2022-11-23T12:51:29.880Z,94287.25
2022-11-23T12:54:24.340Z,94277.25
2022-11-23T12:57:03.365Z,94274.16
2022-11-23T12:59:43.040Z,94274.28
2022-11-23T13:02:33.184Z,94274.88
2022-11-23T13:05:28.387Z,94279.91
2022-11-23T13:08:19.676Z,94286.88
2022-11-23T13:11:00.906Z,94287.28
2022-11-23T13:13:45.361Z,94290.94
2022-11-23T13:16:38.464Z,94283.22
2022-11-23T13:19:35.188Z,94280.59
2022-11-23T13:22:11.086Z,94283.50
2022-11-23T13:24:59.126Z,94282.13
2022-11-23T13:27:44.265Z,94283.84
2022-11-23T13:30:45.560Z,94281.72
2022-11-23T13:33:33.080Z,94291.34
2022-11-23T13:36:10.092Z,94300.31
2022-11-23T13:38:42.908Z,94307.84
2022-11-23T13:41:52.706Z,94309.03
2022-11-23T13:44:25.653Z,94320.53
2022-11-23T13:47:20.735Z,94326.50
2022-11-23T13:49:50.726Z,94320.72
2022-11-23T13:52:29.711Z,94324.03
2022-11-23T13:55:07.436Z,94313.84
2022-11-23T13:57:36.860Z,94309.69
2022-11-23T14:00:41.336Z,94313.34
2022-11-23T14:03:45.698Z,94307.31
2022-11-23T14:06:29.358Z,94310.31
2022-11-23T14:09:05.714Z,94314.19
2022-11-23T14:11:48.428Z,94305.69
2022-11-23T14:14:20.368Z,94303.28
2022-11-23T14:17:22.829Z,94302.59
2022-11-23T14:20:14.177Z,94326.06
2022-11-23T14:23:00.056Z,94324.25
2022-11-23T14:25:44.473Z,94328.47
2022-11-23T14:28:38.993Z,94321.66
2022-11-23T14:31:22.064Z,94312.97
2022-11-23T14:33:59.371Z,94315.41
2022-11-23T14:36:41.690Z,94309.13
2022-11-23T14:39:41.849Z,94304.72
2022-11-23T14:42:17.568Z,94316.00
2022-11-23T14:44:45.827Z,94314.38
2022-11-23T14:47:13.085Z,94309.47
2022-11-23T14:49:50.653Z,94309.25
2022-11-23T14:52:22.588Z,94313.13
2022-11-23T14:54:53.128Z,94328.41
2022-11-23T14:57:25.189Z,94326.91
2022-11-23T14:59:57.708Z,94327.72
2022-11-23T15:02:34.131Z,94325.78
2022-11-23T15:05:11.414Z,94332.88
2022-11-23T15:07:54.551Z,94355.72
2022-11-23T15:10:38.301Z,94356.53
2022-11-23T15:13:18.582Z,94363.38
2022-11-23T15:15:46.901Z,94373.50
2022-11-23T15:18:26.394Z,94385.69
2022-11-23T15:20:53.880Z,94385.59
2022-11-23T15:23:22.980Z,94388.97
2022-11-23T15:25:55.064Z,94405.97
2022-11-23T15:28:28.160Z,94405.50
2022-11-23T15:30:58.599Z,94416.56
2022-11-23T15:33:27.101Z,94415.31
2022-11-23T15:35:55.601Z,94412.78
2022-11-23T15:38:24.304Z,94433.75
2022-11-23T15:40:52.541Z,94436.22
2022-11-23T15:43:20.387Z,94441.69
2022-11-23T15:46:09.458Z,94444.06
2022-11-23T15:48:36.624Z,94456.03
2022-11-23T15:51:07.681Z,94479.38
2022-11-23T15:53:49.279Z,94514.78
2022-11-23T15:56:24.316Z,94526.38
2022-11-23T15:58:54.080Z,94515.81
2022-11-23T16:01:26.319Z,94512.63
2022-11-23T16:03:55.164Z,94534.16
2022-11-23T16:06:36.504Z,94562.63
2022-11-23T16:09:51.204Z,94562.53
2022-11-23T16:12:23.772Z,94553.25
2022-11-23T16:14:51.161Z,94561.66
2022-11-23T16:17:21.493Z,94561.25
2022-11-23T16:19:51.026Z,94563.38
2022-11-23T16:22:28.586Z,94579.13
2022-11-23T16:25:04.324Z,94578.38
2022-11-23T16:27:31.777Z,94589.81
2022-11-23T16:30:02.895Z,94605.84
2022-11-23T16:32:32.779Z,94610.19
2022-11-23T16:35:15.219Z,94605.16
2022-11-23T16:37:42.797Z,94596.50
2022-11-23T16:40:14.435Z,94612.41
2022-11-23T16:42:44.153Z,94612.41
2022-11-23T16:45:11.726Z,94630.03
2022-11-23T16:47:52.819Z,94626.44
2022-11-23T16:50:20.780Z,94632.78
2022-11-23T16:52:48.584Z,94634.22
2022-11-23T16:55:17.164Z,94660.91
2022-11-23T16:57:45.499Z,94665.34
2022-11-23T17:00:17.007Z,94677.78
2022-11-23T17:02:44.431Z,94690.13
2022-11-23T17:05:15.280Z,94696.88
2022-11-23T17:07:42.856Z,94686.63
2022-11-23T17:10:11.331Z,94688.03
2022-11-23T17:12:46.662Z,94698.94
2022-11-23T17:15:22.928Z,94697.13
2022-11-23T17:17:50.160Z,94707.97
2022-11-23T17:20:18.963Z,94704.53
2022-11-23T17:22:46.300Z,94702.50
2022-11-23T17:25:15.284Z,94709.19
2022-11-23T17:27:45.540Z,94720.25
2022-11-23T17:30:16.486Z,94734.72
2022-11-23T17:32:43.781Z,94751.97
2022-11-23T17:35:11.200Z,94763.72
2022-11-23T17:37:38.652Z,94763.03
2022-11-23T17:40:14.088Z,94774.66
2022-11-23T17:42:41.299Z,94773.50
2022-11-23T17:45:11.610Z,94783.00
2022-11-23T17:47:42.555Z,94789.28
2022-11-23T17:50:16.248Z,94790.28
2022-11-23T17:52:43.793Z,94801.28
2022-11-23T17:55:12.100Z,94806.06
2022-11-23T17:57:40.787Z,94808.53
2022-11-23T18:00:18.016Z,94818.94
2022-11-23T18:02:45.589Z,94831.19
2022-11-23T18:05:17.950Z,94828.03
2022-11-23T18:07:48.968Z,94842.06
2022-11-23T18:10:17.393Z,94851.34
2022-11-23T18:12:44.541Z,94875.22
2022-11-23T18:15:13.248Z,94899.91
2022-11-23T18:17:42.572Z,94893.13
2022-11-23T18:20:10.968Z,94897.22
2022-11-23T18:22:38.244Z,94917.63
2022-11-23T18:25:07.589Z,94935.22
2022-11-23T18:27:34.668Z,94927.94
2022-11-23T18:30:06.528Z,94913.75
2022-11-23T18:32:35.467Z,94930.59
2022-11-23T18:35:02.509Z,94931.78
2022-11-23T18:37:29.756Z,94938.41
2022-11-23T18:40:00.462Z,94950.41
2022-11-23T18:42:27.608Z,94938.94
2022-11-23T18:44:54.688Z,94930.81
2022-11-23T18:47:29.459Z,94951.22
2022-11-23T18:50:00.822Z,94936.63
2022-11-23T18:52:32.129Z,94941.66
2022-11-23T18:54:59.428Z,94944.84
2022-11-23T18:57:26.569Z,94953.69
2022-11-23T18:59:58.401Z,94959.72
2022-11-23T19:02:26.174Z,94968.34
2022-11-23T19:04:53.309Z,94971.75
2022-11-23T19:07:26.621Z,94971.91
2022-11-23T19:09:54.492Z,94981.91
2022-11-23T19:12:23.901Z,94998.22
2022-11-23T19:14:53.067Z,94994.03
2022-11-23T19:17:21.548Z,94996.03
2022-11-23T19:19:50.705Z,94997.59
2022-11-23T19:22:17.948Z,95004.38
2022-11-23T19:24:46.354Z,95000.50
2022-11-23T19:27:28.599Z,95011.81
2022-11-23T19:29:55.968Z,95019.56
2022-11-23T19:32:23.108Z,95020.53
2022-11-23T19:34:50.210Z,95027.88
2022-11-23T19:37:17.509Z,95034.44
2022-11-23T19:39:46.793Z,95039.63
2022-11-23T19:42:14.031Z,95045.25
2022-11-23T19:44:41.207Z,95050.84
2022-11-23T19:47:14.455Z,95062.88
2022-11-23T19:49:43.650Z,95057.03
2022-11-23T19:52:10.794Z,95058.31
2022-11-23T19:54:37.909Z,95061.09
2022-11-23T19:57:06.548Z,95060.34
2022-11-23T19:59:34.047Z,95062.94
2022-11-23T20:02:01.246Z,95058.72
2022-11-23T20:04:28.510Z,95067.59
2022-11-23T20:06:55.611Z,95077.28
2022-11-23T20:09:22.809Z,95071.31
2022-11-23T20:11:51.435Z,95062.28
2022-11-23T20:14:20.824Z,95059.25
2022-11-23T20:16:48.313Z,95056.88
2022-11-23T20:19:15.448Z,95071.34
2022-11-23T20:21:42.549Z,95075.81
2022-11-23T20:24:12.692Z,95079.31
2022-11-23T20:26:40.848Z,95082.88
2022-11-23T20:29:09.235Z,95087.13
2022-11-23T20:31:38.541Z,95095.88
2022-11-23T20:34:07.804Z,95104.09
2022-11-23T20:36:38.636Z,95112.16
2022-11-23T20:39:08.026Z,95101.81
2022-11-23T20:41:37.007Z,95106.63
2022-11-23T20:44:06.732Z,95106.31
2022-11-23T20:49:23.327Z,95105.22
2022-11-23T20:51:50.468Z,95106.63
2022-11-23T20:54:17.570Z,95109.53
2022-11-23T20:56:44.571Z,95112.38
2022-11-23T20:59:12.589Z,95121.00
2022-11-23T21:01:39.945Z,95111.75
2022-11-23T21:04:07.172Z,95115.81
2022-11-23T21:06:39.432Z,95115.00
2022-11-23T21:09:08.087Z,95112.03
2022-11-23T21:11:35.410Z,95106.00
2022-11-23T21:14:04.899Z,95114.41
2022-11-23T21:16:32.226Z,95109.75
2022-11-23T21:18:59.467Z,95118.97
2022-11-23T21:21:26.715Z,95121.78
2022-11-23T21:23:55.348Z,95128.19
2022-11-23T21:26:22.708Z,95126.97
2022-11-23T21:28:49.915Z,95130.81
2022-11-23T21:31:17.521Z,95131.41
2022-11-23T21:33:44.708Z,95135.03
2022-11-23T21:36:12.269Z,95138.31
2022-11-23T21:38:41.148Z,95143.19
2022-11-23T21:41:13.609Z,95145.81
2022-11-23T21:43:41.868Z,95147.03
2022-11-23T21:46:11.585Z,95146.88
2022-11-23T21:48:40.359Z,95148.69
2022-11-23T21:51:11.087Z,95160.78
2022-11-23T21:53:39.053Z,95163.00
2022-11-23T21:56:11.559Z,95161.19
2022-11-23T21:58:39.747Z,95164.38
2022-11-23T22:01:09.171Z,95175.88
2022-11-23T22:03:37.621Z,95183.97
2022-11-23T22:06:06.235Z,95180.91
2022-11-23T22:08:34.310Z,95190.75
2022-11-23T22:11:09.014Z,95190.75
2022-11-23T22:13:38.714Z,95191.97
2022-11-23T22:16:16.908Z,95198.84
2022-11-23T22:18:44.894Z,95193.78
2022-11-23T22:21:12.297Z,95202.84
2022-11-23T22:23:40.383Z,95204.84
2022-11-23T22:26:09.335Z,95210.09
2022-11-23T22:28:40.236Z,95207.25
2022-11-23T22:31:10.355Z,95211.28
2022-11-23T22:33:39.889Z,95213.28
2022-11-23T22:36:09.836Z,95213.44
2022-11-23T22:38:36.914Z,95213.25
2022-11-23T22:41:07.095Z,95222.94
2022-11-23T22:43:34.867Z,95230.16
2022-11-23T22:46:05.869Z,95230.75
2022-11-23T22:48:36.116Z,95228.44
2022-11-23T22:51:04.499Z,95226.88
2022-11-23T22:53:31.954Z,95228.56
2022-11-23T22:56:01.875Z,95227.69
2022-11-23T22:58:30.096Z,95229.22
2022-11-23T23:00:58.035Z,95233.19
2022-11-23T23:03:26.693Z,95236.06
2022-11-23T23:05:54.796Z,95231.50
2022-11-23T23:08:21.937Z,95239.28
2022-11-23T23:10:49.455Z,95241.88
2022-11-23T23:13:17.255Z,95241.50
2022-11-23T23:15:44.416Z,95246.03
2022-11-23T23:18:13.848Z,95247.63
2022-11-23T23:20:43.175Z,95243.41
2022-11-23T23:23:10.397Z,95245.06
2022-11-23T23:25:37.596Z,95255.13
2022-11-23T23:28:05.040Z,95263.19
2022-11-23T23:30:32.218Z,95260.13
2022-11-23T23:32:59.348Z,95267.59
2022-11-23T23:35:26.535Z,95273.09
2022-11-23T23:37:55.375Z,95273.25
2022-11-23T23:40:22.518Z,95274.88
2022-11-23T23:42:49.560Z,95288.56
2022-11-23T23:45:16.615Z,95291.94
2022-11-23T23:47:43.796Z,95285.91
2022-11-23T23:50:10.896Z,95297.88
2022-11-23T23:52:37.995Z,95294.19
2022-11-23T23:55:07.774Z,95293.59
2022-11-23T23:57:34.934Z,95306.91
